Terminal Aerodrome Forecast
Issued by NWS Bismarck, ND

Home | Current Version | Previous Version | Graphics & Text | Print | Product List | Glossary On
Versions: 1 2 3 4 5 6 7 8 9 10 11 12 13 14 15 16 17 18 19 20 21 22 23 24 25 26 27 28 29
715
FTUS43 KBIS 230410 AAB
TAFISN
TAF AMD
KISN 230410Z 2304/2324 09014G20KT P6SM SHRA OVC050
      TEMPO 2304/2306 5SM SHRA BR OVC035
     FM230600 10014G20KT P6SM -SHRA SCT020 OVC040
     FM230900 09015G21KT P6SM VCSH BKN025 OVC035
     FM231100 09015G22KT P6SM -SHRA OVC015
     FM231700 09014G20KT 5SM SHRA SCT004 OVC007=

USA.gov is the U.S. government's official web portal to all federal, state and local government web resources and services.